Time;durP1;ratioP1;P1;durP2;ratioP2;P2;SDS_P1;SDS_P2;PMS_P1;PMS_P2;Temp;Humidity;BMP_temperature;BMP_pressure;BME280_temperature;BME280_humidity;BME280_pressure;Samples;Min_cycle;Max_cycle;Signal;HPM_P1;HPM_P2
2024/02/12 00:00:18;;;;;;;0.40;0.40;;;7.90;99.90;;;;;;5069677;28;20229;-80
2024/02/12 00:02:46;;;;;;;0.38;0.38;;;7.80;99.90;;;;;;5065448;28;20213;-79
2024/02/12 00:05:14;;;;;;;1.42;1.33;;;7.90;99.90;;;;;;5063563;28;20352;-79
2024/02/12 00:07:42;;;;;;;0.98;0.93;;;7.90;99.90;;;;;;5084081;28;20249;-80
2024/02/12 00:10:13;;;;;;;1.33;1.00;;;7.80;99.90;;;;;;5076189;28;20264;-79
2024/02/12 00:12:41;;;;;;;0.30;0.30;;;7.80;99.90;;;;;;5087162;28;20194;-78
2024/02/12 00:15:12;;;;;;;0.73;0.73;;;7.80;99.90;;;;;;5064150;28;20235;-80
2024/02/12 00:17:40;;;;;;;0.45;0.45;;;7.80;99.90;;;;;;5084381;28;20191;-80
2024/02/12 00:20:11;;;;;;;0.60;0.60;;;7.70;99.90;;;;;;5064763;28;20203;-80
2024/02/12 00:22:40;;;;;;;0.30;0.30;;;7.70;99.90;;;;;;5095730;28;20202;-81
2024/02/12 00:25:08;;;;;;;0.40;0.40;;;7.70;99.90;;;;;;5082030;28;20246;-80
2024/02/12 00:27:36;;;;;;;2.13;2.03;;;7.80;99.90;;;;;;5076034;28;20241;-80
2024/02/12 00:30:04;;;;;;;0.52;0.52;;;7.80;99.90;;;;;;5081570;28;20227;-80
2024/02/12 00:32:31;;;;;;;0.35;0.35;;;7.70;99.90;;;;;;5067008;28;20215;-81
2024/02/12 00:35:00;;;;;;;0.50;0.50;;;7.70;99.90;;;;;;5078715;28;20210;-79
2024/02/12 00:37:29;;;;;;;0.30;0.30;;;7.70;99.90;;;;;;5081400;28;20836;-81
2024/02/12 00:39:58;;;;;;;0.40;0.40;;;7.70;99.90;;;;;;5072997;28;20292;-80
2024/02/12 00:42:25;;;;;;;0.40;0.40;;;7.60;99.90;;;;;;5087465;28;20632;-80
2024/02/12 00:44:52;;;;;;;0.40;0.40;;;7.90;99.90;;;;;;5069720;28;20215;-80
2024/02/12 00:47:18;;;;;;;0.80;0.80;;;7.60;99.90;;;;;;5086288;28;20281;-80
2024/02/12 00:49:45;;;;;;;0.55;0.55;;;7.70;99.90;;;;;;5086998;28;20234;-81
2024/02/12 00:52:14;;;;;;;0.50;0.50;;;7.70;99.90;;;;;;5079946;28;20206;-80
2024/02/12 00:54:41;;;;;;;0.82;0.82;;;7.60;99.90;;;;;;5082164;28;20226;-81
2024/02/12 00:57:09;;;;;;;0.30;0.30;;;7.60;99.90;;;;;;5086969;28;20265;-80
2024/02/12 00:59:40;;;;;;;0.30;0.30;;;7.60;99.90;;;;;;5082791;28;20211;-79
2024/02/12 01:02:11;;;;;;;0.85;0.85;;;7.50;99.90;;;;;;5096486;28;20226;-81
2024/02/12 01:04:38;;;;;;;0.40;0.40;;;7.50;99.90;;;;;;5085307;28;20218;-80
2024/02/12 01:07:05;;;;;;;0.70;0.70;;;7.50;99.90;;;;;;5086037;28;20227;-81
2024/02/12 01:09:32;;;;;;;0.30;0.30;;;7.70;99.90;;;;;;5086441;28;20248;-81
2024/02/12 01:11:59;;;;;;;0.32;0.32;;;7.50;99.90;;;;;;5082837;28;20377;-81
2024/02/12 01:14:28;;;;;;;0.30;0.30;;;7.60;99.90;;;;;;5088388;28;20273;-81
2024/02/12 01:16:55;;;;;;;0.35;0.35;;;7.50;99.90;;;;;;5089144;28;20203;-81
2024/02/12 01:19:23;;;;;;;0.57;0.57;;;7.50;99.90;;;;;;5077636;28;20272;-79
2024/02/12 01:21:50;;;;;;;0.40;0.40;;;7.50;99.90;;;;;;5077887;28;20324;-80
2024/02/12 01:24:17;;;;;;;0.40;0.40;;;7.60;99.90;;;;;;5087987;28;20445;-80
2024/02/12 01:26:46;;;;;;;0.50;0.50;;;7.50;99.90;;;;;;5096342;28;20214;-80
2024/02/12 01:29:14;;;;;;;0.30;0.30;;;7.40;99.90;;;;;;5079686;28;20400;-80
2024/02/12 01:31:41;;;;;;;0.30;0.30;;;7.40;99.90;;;;;;5088804;28;20214;-80
2024/02/12 01:34:08;;;;;;;0.40;0.40;;;7.40;99.90;;;;;;5088104;28;20242;-80
2024/02/12 01:36:36;;;;;;;0.40;0.40;;;7.40;99.90;;;;;;5068619;28;20270;-80
2024/02/12 01:39:06;;;;;;;0.30;0.30;;;7.40;99.90;;;;;;5077612;28;20204;-81
2024/02/12 01:41:33;;;;;;;0.40;0.40;;;7.40;99.90;;;;;;5090739;28;20423;-80
2024/02/12 01:44:03;;;;;;;0.60;0.60;;;7.40;99.90;;;;;;5085130;28;20257;-79
2024/02/12 01:46:30;;;;;;;0.65;0.65;;;7.40;99.90;;;;;;5083813;28;20569;-80
2024/02/12 01:48:58;;;;;;;1.65;1.25;;;7.40;99.90;;;;;;5082199;28;20209;-80
2024/02/12 01:51:25;;;;;;;0.30;0.30;;;7.40;99.90;;;;;;5079078;28;20207;-80
2024/02/12 01:53:59;;;;;;;0.40;0.40;;;7.40;99.90;;;;;;5072170;28;20201;-80
2024/02/12 01:56:29;;;;;;;1.05;1.05;;;7.40;99.90;;;;;;5067548;28;20234;-80
2024/02/12 01:59:00;;;;;;;0.40;0.40;;;7.40;99.90;;;;;;5083862;28;20229;-80
2024/02/12 02:01:29;;;;;;;0.30;0.30;;;7.40;99.90;;;;;;5078696;28;20246;-80
2024/02/12 02:03:56;;;;;;;0.93;0.90;;;7.40;99.90;;;;;;5077790;28;20204;-81
2024/02/12 02:06:24;;;;;;;0.30;0.30;;;7.40;99.90;;;;;;5090655;28;20242;-81
2024/02/12 02:08:51;;;;;;;0.30;0.30;;;7.40;99.90;;;;;;5077612;28;20761;-81
2024/02/12 02:11:20;;;;;;;0.85;0.85;;;7.50;99.90;;;;;;5058645;28;20261;-80
2024/02/12 02:13:47;;;;;;;0.82;0.82;;;7.50;99.90;;;;;;5075533;28;20210;-81
2024/02/12 02:16:17;;;;;;;0.40;0.40;;;7.50;99.90;;;;;;5081305;28;20215;-80
2024/02/12 02:18:50;;;;;;;0.77;0.77;;;7.40;99.90;;;;;;5070284;28;20202;-80
2024/02/12 02:21:21;;;;;;;0.50;0.50;;;7.50;99.90;;;;;;5089099;28;20515;-80
2024/02/12 02:23:51;;;;;;;0.35;0.35;;;7.40;99.90;;;;;;5087130;28;20216;-79
2024/02/12 02:26:19;;;;;;;0.30;0.30;;;7.40;99.90;;;;;;5083983;28;20272;-79
2024/02/12 02:28:46;;;;;;;0.30;0.30;;;7.40;99.90;;;;;;5080569;28;20207;-81
2024/02/12 02:31:13;;;;;;;0.30;0.30;;;7.40;99.90;;;;;;5092951;28;20210;-81
2024/02/12 02:33:40;;;;;;;0.40;0.40;;;7.40;99.90;;;;;;5079627;28;20203;-81
2024/02/12 02:36:07;;;;;;;0.40;0.40;;;7.40;99.90;;;;;;5072766;28;20234;-79
2024/02/12 02:38:34;;;;;;;0.30;0.30;;;7.40;99.90;;;;;;5078396;28;20207;-80
2024/02/12 02:41:03;;;;;;;0.50;0.50;;;7.40;99.90;;;;;;5080571;28;20403;-79
2024/02/12 02:43:31;;;;;;;0.40;0.40;;;7.30;99.90;;;;;;5083455;28;20271;-80
2024/02/12 02:45:59;;;;;;;0.30;0.30;;;7.30;99.90;;;;;;5090341;28;20286;-80
2024/02/12 02:48:28;;;;;;;0.68;0.68;;;7.30;99.90;;;;;;5097005;28;20198;-81
2024/02/12 02:50:59;;;;;;;0.30;0.30;;;7.30;99.90;;;;;;5078510;28;20214;-80
2024/02/12 02:53:27;;;;;;;0.40;0.40;;;7.40;99.90;;;;;;5082955;28;20230;-80
2024/02/12 02:55:54;;;;;;;0.30;0.30;;;7.30;99.90;;;;;;5069115;28;20207;-79
2024/02/12 02:58:21;;;;;;;0.50;0.50;;;7.20;99.90;;;;;;5078194;28;20210;-80
2024/02/12 03:00:48;;;;;;;0.80;0.80;;;7.30;99.90;;;;;;5091714;28;20211;-80
2024/02/12 03:03:16;;;;;;;0.90;0.90;;;7.30;99.90;;;;;;5088787;28;20526;-79
2024/02/12 03:05:43;;;;;;;0.40;0.40;;;7.30;99.90;;;;;;5071101;28;20233;-80
2024/02/12 03:08:11;;;;;;;0.30;0.30;;;7.30;99.90;;;;;;5095078;28;20275;-81
2024/02/12 03:10:38;;;;;;;0.30;0.30;;;7.20;99.90;;;;;;5067586;28;20222;-80
2024/02/12 03:13:05;;;;;;;0.30;0.30;;;7.20;99.90;;;;;;5089099;28;20209;-80
2024/02/12 03:15:35;;;;;;;0.40;0.40;;;7.20;99.90;;;;;;5061911;28;20239;-80
2024/02/12 03:18:04;;;;;;;0.70;0.70;;;7.20;99.90;;;;;;5066542;28;20196;-80
2024/02/12 03:20:32;;;;;;;0.30;0.30;;;7.20;99.90;;;;;;5077322;28;20277;-80
2024/02/12 03:23:00;;;;;;;0.30;0.30;;;7.10;99.90;;;;;;5073034;28;20285;-80
2024/02/12 03:25:27;;;;;;;0.30;0.30;;;7.10;99.90;;;;;;5068354;28;20561;-80
2024/02/12 03:27:54;;;;;;;0.40;0.40;;;7.10;99.90;;;;;;5084215;28;20209;-80
2024/02/12 03:30:24;;;;;;;0.40;0.40;;;7.10;99.90;;;;;;5079690;28;20206;-80
2024/02/12 03:32:51;;;;;;;2.83;2.60;;;7.10;99.90;;;;;;5080257;28;20234;-80
2024/02/12 03:35:19;;;;;;;0.82;0.75;;;7.00;99.90;;;;;;5079798;28;20225;-81
2024/02/12 03:37:46;;;;;;;0.30;0.30;;;7.00;99.90;;;;;;5062227;28;20230;-80
2024/02/12 03:40:16;;;;;;;0.60;0.60;;;7.00;99.90;;;;;;5074530;28;20244;-79
2024/02/12 03:42:44;;;;;;;0.68;0.68;;;7.00;99.90;;;;;;5088513;28;20199;-80
2024/02/12 03:45:15;;;;;;;0.30;0.30;;;7.00;99.90;;;;;;5079482;28;20298;-80
2024/02/12 03:47:43;;;;;;;1.23;1.23;;;6.90;99.90;;;;;;5076612;28;20216;-79
2024/02/12 03:59:51;;;;;;;0.60;0.60;;;7.00;99.90;;;;;;5076549;28;20199;-80
2024/02/12 04:01:31;;;;;;;1.23;1.23;;;7.00;99.90;;;;;;5067600;28;20508;-80
2024/02/12 04:03:59;;;;;;;0.30;0.30;;;6.90;99.90;;;;;;5064298;28;20229;-80
2024/02/12 04:06:32;;;;;;;0.60;0.60;;;6.90;99.90;;;;;;5073751;28;20231;-81
2024/02/12 04:08:59;;;;;;;0.40;0.40;;;6.90;99.90;;;;;;5069838;28;20365;-81
2024/02/12 04:11:28;;;;;;;0.40;0.40;;;6.90;99.90;;;;;;5073456;28;20195;-80
2024/02/12 04:13:56;;;;;;;2.17;1.98;;;6.90;99.90;;;;;;5080258;28;20241;-80
2024/02/12 04:16:23;;;;;;;0.30;0.30;;;6.80;99.90;;;;;;5085975;28;20207;-80
2024/02/12 04:18:50;;;;;;;0.35;0.35;;;6.90;99.90;;;;;;5065472;28;20196;-81
2024/02/12 04:21:20;;;;;;;0.50;0.50;;;6.80;99.90;;;;;;5069261;28;20772;-81
2024/02/12 04:23:49;;;;;;;0.40;0.40;;;6.80;99.90;;;;;;5061909;28;20515;-81
2024/02/12 04:26:17;;;;;;;0.30;0.30;;;6.80;99.90;;;;;;5064032;28;20227;-81
2024/02/12 04:28:46;;;;;;;0.60;0.60;;;6.80;99.90;;;;;;5092575;28;20207;-81
2024/02/12 04:31:13;;;;;;;0.63;0.63;;;6.80;99.90;;;;;;5081877;28;20518;-82
2024/02/12 04:33:41;;;;;;;0.40;0.40;;;6.90;99.90;;;;;;5068236;28;20264;-82
2024/02/12 04:36:08;;;;;;;0.40;0.40;;;6.90;99.90;;;;;;5061799;28;20527;-81
2024/02/12 04:38:35;;;;;;;0.30;0.30;;;6.90;99.90;;;;;;5079437;28;20207;-81
2024/02/12 04:41:05;;;;;;;1.10;1.10;;;6.90;99.90;;;;;;5072915;28;20507;-82
2024/02/12 04:43:35;;;;;;;0.60;0.60;;;6.90;99.90;;;;;;5086513;28;20210;-81
2024/02/12 04:46:02;;;;;;;1.08;1.08;;;6.80;99.90;;;;;;5081236;28;20393;-81
2024/02/12 04:48:31;;;;;;;0.40;0.40;;;7.00;99.90;;;;;;5070090;28;20210;-80
2024/02/12 04:50:59;;;;;;;0.50;0.50;;;7.00;99.90;;;;;;5076912;28;20272;-80
2024/02/12 04:53:26;;;;;;;1.70;1.15;;;6.90;99.90;;;;;;5082012;28;20207;-80
2024/02/12 04:55:54;;;;;;;0.30;0.30;;;7.00;99.90;;;;;;5079607;28;20244;-80
2024/02/12 04:58:22;;;;;;;0.35;0.35;;;7.00;99.90;;;;;;5085825;28;20275;-80
2024/02/12 05:00:49;;;;;;;4.20;2.92;;;7.00;99.90;;;;;;5073444;28;20270;-80
2024/02/12 05:03:16;;;;;;;0.40;0.40;;;6.90;99.90;;;;;;5085006;28;20261;-80
2024/02/12 05:05:43;;;;;;;0.40;0.40;;;6.90;99.90;;;;;;5068540;28;20287;-81
2024/02/12 05:08:10;;;;;;;0.50;0.50;;;6.90;99.90;;;;;;5082429;28;20208;-81
2024/02/12 05:10:37;;;;;;;0.60;0.60;;;6.80;99.90;;;;;;5076025;28;20725;-80
2024/02/12 05:13:05;;;;;;;0.30;0.30;;;7.00;99.90;;;;;;5076676;28;20262;-79
2024/02/12 05:15:34;;;;;;;1.98;1.88;;;7.00;99.90;;;;;;5098460;28;20289;-81
2024/02/12 05:22:32;;;;;;;0.55;0.55;;;6.90;99.90;;;;;;5087288;28;20432;-80
2024/02/12 05:23:40;;;;;;;0.75;0.75;;;6.90;99.90;;;;;;5094893;28;20413;-80
2024/02/12 05:26:07;;;;;;;0.60;0.45;;;6.90;99.90;;;;;;5088516;28;20360;-80
2024/02/12 05:28:34;;;;;;;0.90;0.90;;;6.80;99.90;;;;;;5080984;28;20415;-78
2024/02/12 05:31:02;;;;;;;0.38;0.38;;;6.90;99.90;;;;;;5080137;28;20233;-81
2024/02/12 05:33:31;;;;;;;0.57;0.57;;;6.90;99.90;;;;;;5095678;28;20210;-81
2024/02/12 05:35:59;;;;;;;0.68;0.68;;;7.00;99.90;;;;;;5082814;28;20276;-81
2024/02/12 05:38:27;;;;;;;0.40;0.40;;;7.00;99.90;;;;;;5077533;28;20259;-81
2024/02/12 05:40:54;;;;;;;0.30;0.30;;;6.90;99.90;;;;;;5083161;28;20463;-80
2024/02/12 05:43:21;;;;;;;0.40;0.40;;;7.00;99.90;;;;;;5083205;28;20206;-80
2024/02/12 05:45:50;;;;;;;0.30;0.30;;;7.00;99.90;;;;;;5084777;28;20273;-81
2024/02/12 05:48:16;;;;;;;0.50;0.50;;;6.90;99.90;;;;;;5085072;28;20207;-80
2024/02/12 05:50:45;;;;;;;0.40;0.40;;;7.10;99.90;;;;;;5095493;28;20211;-81
2024/02/12 05:53:12;;;;;;;0.50;0.50;;;7.00;99.90;;;;;;5103495;28;20193;-82
2024/02/12 05:55:39;;;;;;;0.40;0.40;;;7.00;99.90;;;;;;5090812;28;20199;-82
2024/02/12 05:58:09;;;;;;;1.02;1.02;;;7.00;99.90;;;;;;5092258;28;20262;-80
2024/02/12 06:00:37;;;;;;;0.30;0.30;;;6.90;99.90;;;;;;5080060;28;20320;-80
2024/02/12 06:03:04;;;;;;;0.40;0.40;;;7.10;99.90;;;;;;5095054;28;20209;-80
2024/02/12 06:05:31;;;;;;;0.68;0.68;;;7.10;99.90;;;;;;5078006;28;20403;-80
2024/02/12 06:07:58;;;;;;;0.68;0.68;;;7.00;99.90;;;;;;5070770;28;20195;-81
2024/02/12 06:10:26;;;;;;;0.40;0.40;;;7.10;99.90;;;;;;5064290;28;20459;-80
2024/02/12 06:12:53;;;;;;;0.40;0.40;;;7.00;99.90;;;;;;5088058;28;20237;-80
2024/02/12 06:15:20;;;;;;;0.40;0.40;;;7.00;99.90;;;;;;5093641;28;20460;-80
2024/02/12 06:17:47;;;;;;;0.40;0.40;;;7.00;99.90;;;;;;5078314;28;20504;-80
2024/02/12 06:20:15;;;;;;;0.40;0.40;;;7.00;99.90;;;;;;5070597;28;20229;-81
2024/02/12 06:22:42;;;;;;;1.05;1.05;;;6.90;99.90;;;;;;5070438;28;20595;-79
2024/02/12 06:25:12;;;;;;;0.90;0.90;;;6.90;99.90;;;;;;5088547;28;20307;-80
2024/02/12 06:27:39;;;;;;;0.40;0.40;;;6.90;99.90;;;;;;5058141;28;20291;-80
2024/02/12 06:30:10;;;;;;;0.80;0.80;;;6.90;99.90;;;;;;5092515;28;20233;-79
2024/02/12 06:32:37;;;;;;;1.35;1.25;;;6.90;99.90;;;;;;5072074;28;20207;-80
2024/02/12 06:35:06;;;;;;;0.40;0.40;;;6.90;99.90;;;;;;5087450;28;20215;-80
2024/02/12 06:37:34;;;;;;;1.90;1.77;;;6.90;99.90;;;;;;5082274;28;20501;-80
2024/02/12 06:40:02;;;;;;;0.57;0.57;;;6.90;99.90;;;;;;5089853;28;20223;-81
2024/02/12 06:42:30;;;;;;;1.60;1.50;;;7.00;99.90;;;;;;5087226;28;20199;-79
2024/02/12 06:44:58;;;;;;;0.40;0.40;;;7.00;99.90;;;;;;5076624;28;20274;-79
2024/02/12 06:47:24;;;;;;;0.82;0.70;;;7.00;99.90;;;;;;5096385;28;20256;-81
2024/02/12 06:49:52;;;;;;;0.40;0.40;;;7.00;99.90;;;;;;5088961;28;20211;-80
2024/02/12 06:52:19;;;;;;;1.02;0.95;;;7.10;99.90;;;;;;5073740;28;20279;-82
2024/02/12 06:54:47;;;;;;;1.10;1.05;;;7.20;99.90;;;;;;5088066;28;20569;-80
2024/02/12 06:57:15;;;;;;;1.35;1.35;;;7.10;99.90;;;;;;5090215;28;20212;-79
2024/02/12 06:59:42;;;;;;;0.55;0.55;;;7.30;99.90;;;;;;5065180;28;20238;-79
2024/02/12 07:02:10;;;;;;;0.40;0.40;;;7.40;99.90;;;;;;5082740;28;20269;-80
2024/02/12 07:04:37;;;;;;;1.75;1.65;;;7.40;99.90;;;;;;5088069;28;20246;-80
2024/02/12 07:07:04;;;;;;;0.40;0.40;;;7.40;99.90;;;;;;5090554;28;20537;-80
2024/02/12 07:09:31;;;;;;;0.75;0.75;;;7.50;99.90;;;;;;5085413;28;20551;-80
2024/02/12 07:11:58;;;;;;;0.40;0.40;;;7.50;99.90;;;;;;5079290;28;20254;-80
2024/02/12 07:14:25;;;;;;;2.08;1.98;;;7.50;99.90;;;;;;5070965;28;20273;-80
2024/02/12 07:16:52;;;;;;;0.40;0.40;;;7.60;99.90;;;;;;5090123;28;20407;-80
2024/02/12 07:19:20;;;;;;;1.20;0.93;;;7.70;99.90;;;;;;5082091;28;20207;-81
2024/02/12 07:21:47;;;;;;;0.40;0.40;;;7.80;99.90;;;;;;5076903;28;20465;-81
2024/02/12 07:24:15;;;;;;;1.00;1.00;;;7.90;99.90;;;;;;5076481;28;20270;-79
2024/02/12 07:26:43;;;;;;;0.50;0.50;;;7.90;99.90;;;;;;5078215;28;20309;-80
2024/02/12 07:29:10;;;;;;;0.50;0.50;;;8.00;99.90;;;;;;5075730;28;20529;-82
2024/02/12 07:31:39;;;;;;;0.60;0.60;;;8.10;99.90;;;;;;5077413;28;20207;-80
2024/02/12 07:34:06;;;;;;;0.50;0.50;;;8.10;99.90;;;;;;5080597;28;20218;-82
2024/02/12 07:36:33;;;;;;;0.40;0.40;;;8.20;99.90;;;;;;5064851;28;20518;-80
2024/02/12 07:39:00;;;;;;;0.70;0.70;;;8.10;99.90;;;;;;5087042;28;20255;-81
2024/02/12 07:41:27;;;;;;;0.40;0.40;;;8.20;99.90;;;;;;5084668;28;20205;-81
2024/02/12 07:43:54;;;;;;;0.65;0.65;;;8.20;99.90;;;;;;5082513;28;20191;-81
2024/02/12 07:46:22;;;;;;;0.60;0.60;;;8.10;99.90;;;;;;5095739;28;20210;-83
2024/02/12 07:48:49;;;;;;;0.75;0.75;;;8.20;99.90;;;;;;5086717;28;20278;-80
2024/02/12 07:51:18;;;;;;;0.52;0.52;;;8.10;99.90;;;;;;5079768;28;20491;-80
2024/02/12 07:53:48;;;;;;;0.47;0.47;;;8.20;99.90;;;;;;5088172;28;20403;-80
2024/02/12 07:56:16;;;;;;;0.50;0.50;;;8.10;99.90;;;;;;5083774;28;20203;-80
2024/02/12 07:58:43;;;;;;;1.00;1.00;;;8.30;99.90;;;;;;5082169;28;20206;-81
2024/02/12 08:01:10;;;;;;;0.50;0.50;;;8.30;99.90;;;;;;5078071;28;20566;-80
2024/02/12 08:03:38;;;;;;;0.70;0.70;;;8.40;99.90;;;;;;5081791;28;20214;-81
2024/02/12 08:06:05;;;;;;;0.50;0.50;;;8.40;99.90;;;;;;5079915;28;20213;-82
2024/02/12 08:08:33;;;;;;;0.60;0.60;;;8.50;99.90;;;;;;5086175;28;20221;-79
2024/02/12 08:10:59;;;;;;;0.77;0.77;;;8.50;99.90;;;;;;5077784;28;20271;-80
2024/02/12 08:13:26;;;;;;;0.50;0.50;;;8.50;99.90;;;;;;5095479;28;20199;-78
2024/02/12 08:15:53;;;;;;;0.60;0.60;;;8.50;99.90;;;;;;5099043;28;20438;-81
2024/02/12 08:18:21;;;;;;;0.50;0.50;;;8.50;99.90;;;;;;5092973;28;20474;-81
2024/02/12 08:20:49;;;;;;;0.60;0.60;;;8.60;99.90;;;;;;5087972;28;20207;-80
2024/02/12 08:23:16;;;;;;;0.50;0.50;;;8.60;99.90;;;;;;5058724;28;20220;-79
2024/02/12 08:25:43;;;;;;;0.45;0.45;;;8.60;99.90;;;;;;5084683;28;20507;-79
2024/02/12 08:28:10;;;;;;;0.98;0.98;;;8.70;99.90;;;;;;5081731;28;20795;-79
2024/02/12 08:30:37;;;;;;;0.50;0.50;;;8.70;99.90;;;;;;5087318;28;20471;-78
2024/02/12 08:33:04;;;;;;;0.60;0.60;;;8.80;99.90;;;;;;5072320;28;20468;-80
2024/02/12 08:35:31;;;;;;;5.07;2.25;;;8.90;99.90;;;;;;5089678;28;20222;-80
2024/02/12 08:37:58;;;;;;;0.52;0.52;;;8.80;99.90;;;;;;5084604;28;20269;-81
2024/02/12 08:40:26;;;;;;;0.85;0.85;;;8.90;99.90;;;;;;5077434;28;20507;-80
2024/02/12 08:42:54;;;;;;;1.70;0.80;;;8.90;99.90;;;;;;5091183;28;20576;-79
2024/02/12 08:45:22;;;;;;;0.50;0.50;;;9.00;99.90;;;;;;5086051;28;20262;-82
2024/02/12 08:47:49;;;;;;;0.50;0.50;;;9.00;99.90;;;;;;5082516;28;20250;-81
2024/02/12 08:50:17;;;;;;;0.60;0.60;;;8.90;99.90;;;;;;5068915;28;20212;-81
2024/02/12 08:52:44;;;;;;;0.75;0.75;;;9.20;99.90;;;;;;5080942;28;20499;-80
2024/02/12 08:55:11;;;;;;;1.40;1.38;;;9.30;99.90;;;;;;5086263;28;20214;-80
2024/02/12 08:57:43;;;;;;;0.68;0.68;;;9.40;99.90;;;;;;5081302;28;20207;-80
2024/02/12 09:00:13;;;;;;;0.70;0.70;;;9.50;99.90;;;;;;5080012;28;20206;-80
2024/02/12 09:02:43;;;;;;;2.80;2.25;;;9.60;99.90;;;;;;5095524;28;20708;-82
2024/02/12 09:05:10;;;;;;;0.50;0.50;;;9.70;99.90;;;;;;5088979;28;20226;-80
2024/02/12 09:07:39;;;;;;;0.50;0.50;;;9.70;99.90;;;;;;5080115;28;20227;-81
2024/02/12 09:10:07;;;;;;;1.98;0.80;;;9.90;99.90;;;;;;5088259;28;20211;-80
2024/02/12 09:12:37;;;;;;;0.82;0.82;;;9.80;99.90;;;;;;5072450;28;20206;-80
2024/02/12 09:15:19;;;;;;;1.55;1.55;;;9.70;99.90;;;;;;5084360;28;20210;-78
2024/02/12 09:17:47;;;;;;;0.50;0.50;;;9.80;99.90;;;;;;5073673;28;20219;-81
2024/02/12 09:20:15;;;;;;;0.50;0.50;;;9.80;99.90;;;;;;5085790;28;20237;-80
2024/02/12 09:22:43;;;;;;;0.88;0.88;;;10.00;99.90;;;;;;5085427;28;20222;-79
2024/02/12 09:25:13;;;;;;;0.50;0.50;;;10.10;99.90;;;;;;5080993;28;20213;-80
2024/02/12 09:27:45;;;;;;;0.50;0.50;;;10.20;99.90;;;;;;5045678;28;20230;-81
2024/02/12 09:30:16;;;;;;;0.75;0.75;;;10.40;99.90;;;;;;5089804;28;20220;-81
2024/02/12 09:32:46;;;;;;;0.50;0.50;;;10.40;99.90;;;;;;5090261;28;20250;-81
2024/02/12 09:35:17;;;;;;;1.20;1.10;;;10.50;99.90;;;;;;5089130;28;20223;-79
2024/02/12 09:37:47;;;;;;;1.30;1.10;;;10.60;99.90;;;;;;5077186;28;20499;-79
2024/02/12 09:40:17;;;;;;;0.60;0.60;;;10.50;99.90;;;;;;5077918;28;20234;-79
2024/02/12 09:42:45;;;;;;;1.00;1.00;;;10.50;99.90;;;;;;5093573;28;20419;-82
2024/02/12 09:45:15;;;;;;;0.60;0.60;;;10.40;99.90;;;;;;5080209;28;20455;-80
2024/02/12 09:47:43;;;;;;;0.50;0.50;;;10.50;99.90;;;;;;5073093;28;20239;-80
2024/02/12 09:50:12;;;;;;;1.30;1.23;;;10.50;99.90;;;;;;5084304;28;20202;-82
2024/02/12 09:52:44;;;;;;;0.95;0.95;;;10.60;99.90;;;;;;5064174;28;20403;-80
2024/02/12 09:55:12;;;;;;;0.60;0.60;;;10.70;99.90;;;;;;5082487;28;20210;-80
2024/02/12 09:57:40;;;;;;;0.70;0.70;;;10.70;99.90;;;;;;5090160;28;20214;-81
2024/02/12 10:00:10;;;;;;;0.60;0.60;;;10.70;99.90;;;;;;5092061;28;20199;-80
2024/02/12 10:02:39;;;;;;;1.95;1.15;;;10.60;99.90;;;;;;5086816;28;20544;-81
2024/02/12 10:05:10;;;;;;;0.50;0.50;;;10.60;99.90;;;;;;5092999;28;20195;-81
2024/02/12 10:07:39;;;;;;;0.60;0.60;;;10.80;99.90;;;;;;5083305;28;20593;-79
2024/02/12 10:10:08;;;;;;;0.60;0.60;;;10.80;99.90;;;;;;5095054;28;20571;-80
2024/02/12 10:12:36;;;;;;;0.50;0.50;;;11.00;99.90;;;;;;5100487;28;20344;-80
2024/02/12 10:15:07;;;;;;;1.60;1.50;;;11.10;99.90;;;;;;5070939;28;20206;-79
2024/02/12 10:17:34;;;;;;;0.60;0.60;;;10.70;99.90;;;;;;5067975;28;20203;-80
2024/02/12 10:20:09;;;;;;;0.60;0.60;;;10.70;99.90;;;;;;5089018;28;20426;-82
2024/02/12 10:22:38;;;;;;;0.75;0.75;;;10.70;99.90;;;;;;5084272;28;20274;-84
2024/02/12 10:25:06;;;;;;;0.60;0.60;;;10.60;99.90;;;;;;5093432;28;20450;-81
2024/02/12 10:27:33;;;;;;;0.60;0.60;;;10.70;99.90;;;;;;5076898;28;20318;-83
2024/02/12 10:30:01;;;;;;;0.70;0.70;;;10.60;99.90;;;;;;5067840;28;20219;-81
2024/02/12 10:32:28;;;;;;;0.60;0.60;;;10.50;99.90;;;;;;5092476;28;20207;-82
2024/02/12 10:35:00;;;;;;;0.50;0.50;;;10.70;99.90;;;;;;5092108;28;20495;-84
2024/02/12 10:37:31;;;;;;;3.25;3.05;;;10.40;99.90;;;;;;5071810;28;20207;-79
2024/02/12 10:39:59;;;;;;;0.60;0.60;;;10.40;99.90;;;;;;5092489;28;20240;-81
2024/02/12 10:42:41;;;;;;;0.50;0.50;;;10.50;99.90;;;;;;5112192;28;20267;-84
2024/02/12 10:45:10;;;;;;;0.60;0.60;;;10.50;99.90;;;;;;5099258;28;20183;-84
2024/02/12 10:47:37;;;;;;;0.50;0.50;;;10.70;99.90;;;;;;5110649;28;20230;-84
2024/02/12 10:50:07;;;;;;;0.98;0.98;;;10.60;99.90;;;;;;5084313;28;20371;-81
2024/02/12 10:52:36;;;;;;;0.70;0.70;;;10.80;99.90;;;;;;5073467;28;20202;-82
2024/02/12 10:55:09;;;;;;;1.05;1.05;;;10.90;99.90;;;;;;5087763;28;20282;-83
2024/02/12 10:57:43;;;;;;;0.50;0.50;;;10.90;99.90;;;;;;5084851;28;20199;-81
2024/02/12 11:00:23;;;;;;;0.80;0.80;;;11.00;99.90;;;;;;5091879;28;20209;-80
2024/02/12 11:02:53;;;;;;;0.60;0.60;;;11.00;99.90;;;;;;5081256;28;20225;-83
2024/02/12 11:05:21;;;;;;;0.73;0.73;;;11.00;99.90;;;;;;5072633;28;20515;-83
2024/02/12 11:08:00;;;;;;;1.45;1.45;;;11.00;99.90;;;;;;5091973;28;20226;-81
2024/02/12 11:10:32;;;;;;;0.60;0.60;;;10.80;99.90;;;;;;5069556;28;20204;-79
2024/02/12 11:13:03;;;;;;;0.60;0.60;;;10.70;99.90;;;;;;5057314;28;20207;-82
2024/02/12 11:15:35;;;;;;;0.95;0.95;;;10.80;99.90;;;;;;5068469;28;20234;-83
2024/02/12 11:18:12;;;;;;;0.60;0.60;;;10.80;99.90;;;;;;5088476;28;20199;-84
2024/02/12 11:20:50;;;;;;;0.93;0.93;;;10.70;99.90;;;;;;5076604;28;20293;-83
2024/02/12 11:23:24;;;;;;;0.65;0.65;;;10.70;99.90;;;;;;5066797;28;20237;-83
2024/02/12 11:25:56;;;;;;;0.70;0.70;;;10.70;99.90;;;;;;5083207;28;20202;-84
2024/02/12 11:28:28;;;;;;;0.60;0.60;;;10.60;99.90;;;;;;5093488;28;20241;-79
2024/02/12 11:30:56;;;;;;;0.70;0.70;;;10.70;99.90;;;;;;5097611;28;20198;-82
2024/02/12 11:33:24;;;;;;;0.70;0.70;;;10.80;99.90;;;;;;5095284;28;20269;-79
2024/02/12 11:36:08;;;;;;;0.60;0.60;;;11.20;99.90;;;;;;5085405;28;20579;-83
2024/02/12 11:38:46;;;;;;;0.50;0.50;;;11.00;99.90;;;;;;5085949;28;20207;-78
2024/02/12 11:41:17;;;;;;;0.85;0.85;;;11.00;99.90;;;;;;5081063;28;20486;-81
2024/02/12 11:43:47;;;;;;;0.75;0.75;;;11.00;99.90;;;;;;5090905;28;20222;-83
2024/02/12 11:46:15;;;;;;;0.50;0.50;;;11.10;99.90;;;;;;5064320;28;20238;-81
2024/02/12 11:48:43;;;;;;;0.50;0.50;;;11.10;99.90;;;;;;5084790;28;20636;-82
2024/02/12 11:51:19;;;;;;;0.70;0.70;;;11.40;99.90;;;;;;5088586;28;20196;-82
2024/02/12 11:53:50;;;;;;;0.50;0.50;;;11.30;99.90;;;;;;5089671;28;20209;-82
2024/02/12 11:56:19;;;;;;;1.05;1.05;;;11.50;99.90;;;;;;5069304;28;20215;-81
2024/02/12 11:58:56;;;;;;;0.55;0.55;;;11.30;99.90;;;;;;5084440;28;20202;-81
2024/02/12 12:01:31;;;;;;;0.50;0.50;;;11.20;99.90;;;;;;5085408;28;20215;-79
2024/02/12 12:03:59;;;;;;;0.60;0.60;;;11.10;99.90;;;;;;5090691;28;20250;-83
2024/02/12 12:06:31;;;;;;;0.50;0.50;;;11.10;99.90;;;;;;5082567;28;20507;-80
2024/02/12 12:09:05;;;;;;;0.60;0.60;;;11.20;99.90;;;;;;5083746;28;20281;-80
2024/02/12 12:11:32;;;;;;;0.60;0.60;;;11.10;99.90;;;;;;5085872;28;20208;-82
2024/02/12 12:14:00;;;;;;;0.60;0.60;;;11.10;99.90;;;;;;5103085;28;20206;-80
2024/02/12 12:16:30;;;;;;;0.60;0.60;;;11.00;99.90;;;;;;5093033;28;20210;-81
2024/02/12 12:19:04;;;;;;;0.60;0.60;;;10.80;99.90;;;;;;5084080;28;20240;-82
2024/02/12 12:21:34;;;;;;;0.50;0.50;;;10.80;99.90;;;;;;5063785;28;20195;-80
2024/02/12 12:24:02;;;;;;;1.23;1.23;;;10.60;99.90;;;;;;5070936;28;20202;-83
2024/02/12 12:26:30;;;;;;;0.60;0.60;;;10.80;99.90;;;;;;5089770;28;20514;-81
2024/02/12 12:28:59;;;;;;;0.60;0.60;;;10.90;99.90;;;;;;5083031;28;20215;-82
2024/02/12 12:31:31;;;;;;;0.60;0.60;;;11.00;99.90;;;;;;5089440;28;20213;-83
2024/02/12 12:34:00;;;;;;;0.60;0.60;;;11.00;99.90;;;;;;5071789;28;20437;-84
2024/02/12 12:36:27;;;;;;;0.70;0.70;;;11.00;99.90;;;;;;5079313;28;20198;-82
2024/02/12 12:38:54;;;;;;;0.85;0.85;;;11.00;99.90;;;;;;5072743;28;20430;-85
2024/02/12 12:41:22;;;;;;;0.60;0.60;;;11.10;99.90;;;;;;5096390;28;20210;-80
2024/02/12 12:43:50;;;;;;;1.77;1.23;;;10.90;99.90;;;;;;5079074;28;20729;-83
2024/02/12 12:46:19;;;;;;;0.60;0.60;;;10.90;99.90;;;;;;5078449;28;20207;-82
2024/02/12 12:48:46;;;;;;;1.70;1.15;;;10.90;99.90;;;;;;5080659;28;20471;-83
2024/02/12 12:51:15;;;;;;;0.70;0.70;;;11.00;99.90;;;;;;5088694;28;20211;-84
2024/02/12 12:53:43;;;;;;;0.65;0.65;;;11.00;99.90;;;;;;5088988;28;20206;-83
2024/02/12 12:56:11;;;;;;;0.60;0.60;;;10.90;99.90;;;;;;5080620;28;20227;-80
2024/02/12 12:58:38;;;;;;;1.52;1.52;;;11.10;99.90;;;;;;5088111;28;20207;-82
2024/02/12 13:01:08;;;;;;;1.08;1.08;;;11.20;99.90;;;;;;5081244;28;20210;-81
2024/02/12 13:03:39;;;;;;;1.40;1.30;;;11.30;99.90;;;;;;5088768;28;20510;-82
2024/02/12 13:06:07;;;;;;;0.60;0.60;;;11.30;99.90;;;;;;5077285;28;20194;-82
2024/02/12 13:08:37;;;;;;;0.50;0.50;;;11.50;99.90;;;;;;5091310;28;20530;-83
2024/02/12 13:11:04;;;;;;;0.52;0.52;;;11.50;99.90;;;;;;5078989;28;20255;-83